Time;durP1;ratioP1;P1;durP2;ratioP2;P2;SDS_P1;SDS_P2;PMS_P1;PMS_P2;Temp;Humidity;BMP_temperature;BMP_pressure;BME280_temperature;BME280_humidity;BME280_pressure;Samples;Min_cycle;Max_cycle;Signal;HPM_P1;HPM_P2
2021/09/23 00:02:14;;;;;;;8.23;4.55;;;;;;;7.27;100.00;99948.78;1778160;80;20991;-73
2021/09/23 00:04:32;;;;;;;4.83;3.65;;;;;;;7.26;100.00;99948.35;1776250;80;21096;-74
2021/09/23 00:07:02;;;;;;;9.78;4.28;;;;;;;7.25;100.00;99948.41;1778203;80;21729;-73
2021/09/23 00:09:28;;;;;;;4.90;3.72;;;;;;;7.23;100.00;99953.69;1777176;80;21084;-70
2021/09/23 00:11:57;;;;;;;5.58;4.05;;;;;;;7.23;100.00;99956.77;1777857;80;21544;-72
2021/09/23 00:14:23;;;;;;;4.12;3.40;;;;;;;7.22;100.00;99953.25;1777824;80;21025;-71
2021/09/23 00:16:51;;;;;;;5.08;4.03;;;;;;;7.21;100.00;99959.41;1773176;80;21046;-73
2021/09/23 00:19:18;;;;;;;5.35;3.58;;;;;;;7.21;100.00;99956.79;1776144;80;20978;-72
2021/09/23 00:21:46;;;;;;;5.50;3.08;;;;;;;7.23;100.00;99961.55;1776529;80;21007;-72
2021/09/23 00:24:12;;;;;;;6.10;4.30;;;;;;;7.25;100.00;99955.81;1773448;80;21579;-69
2021/09/23 00:26:39;;;;;;;5.03;3.62;;;;;;;7.26;100.00;99951.43;1758934;80;21096;-71
2021/09/23 00:29:06;;;;;;;7.47;4.08;;;;;;;7.27;100.00;99951.40;1754246;81;21053;-71
2021/09/23 00:31:33;;;;;;;4.87;3.50;;;;;;;7.26;100.00;99948.35;1757512;80;21209;-71
2021/09/23 00:34:00;;;;;;;3.95;3.15;;;;;;;7.27;100.00;99950.09;1773170;80;21073;-71
2021/09/23 00:36:30;;;;;;;6.28;3.90;;;;;;;7.29;100.00;99950.91;1773034;80;21045;-72
2021/09/23 00:38:56;;;;;;;6.55;4.30;;;;;;;7.29;100.00;99948.30;1773284;80;21583;-72
2021/09/23 00:41:24;;;;;;;7.62;4.50;;;;;;;7.30;100.00;99942.59;1774653;80;21069;-71
2021/09/23 00:43:50;;;;;;;8.63;4.83;;;;;;;7.29;100.00;99945.67;1774894;80;21114;-72
2021/09/23 00:46:17;;;;;;;7.17;4.20;;;;;;;7.30;100.00;99946.53;1774669;80;21061;-72
2021/09/23 00:48:49;;;;;;;7.22;4.10;;;;;;;7.29;100.00;99944.36;1775003;80;21114;-72
2021/09/23 00:51:12;;;;;;;5.42;4.00;;;;;;;7.30;100.00;99944.76;1774380;80;21006;-71
2021/09/23 00:53:39;;;;;;;5.17;4.00;;;;;;;7.27;100.00;99936.11;1775424;80;20998;-72
2021/09/23 00:56:08;;;;;;;6.67;4.37;;;;;;;7.32;100.00;99948.20;1775237;80;21503;-73
2021/09/23 00:58:37;;;;;;;5.70;4.05;;;;;;;7.31;100.00;99949.54;1774922;80;21537;-72
2021/09/23 01:01:04;;;;;;;6.50;4.25;;;;;;;7.31;100.00;99949.09;1774595;80;21591;-73
2021/09/23 01:03:30;;;;;;;7.00;4.20;;;;;;;7.31;100.00;99949.09;1775135;80;21049;-71
2021/09/23 01:06:00;;;;;;;4.17;3.55;;;;;;;7.30;100.00;99947.37;1774627;80;21092;-72
2021/09/23 01:08:28;;;;;;;4.45;3.47;;;;;;;7.29;100.00;99946.98;1774952;80;21134;-73
2021/09/23 01:10:56;;;;;;;7.20;3.98;;;;;;;7.27;100.00;99940.92;1774731;80;21088;-72
2021/09/23 01:13:26;;;;;;;5.60;3.43;;;;;;;7.28;100.00;99945.25;1774631;80;21049;-71
2021/09/23 01:16:00;;;;;;;6.47;4.08;;;;;;;7.30;100.00;99947.37;1776694;78;21147;-72
2021/09/23 01:18:30;;;;;;;5.05;3.75;;;;;;;7.33;100.00;99950.36;1779791;80;21010;-72
2021/09/23 01:20:57;;;;;;;8.65;4.45;;;;;;;7.34;100.00;99950.34;1779715;80;21136;-72
2021/09/23 01:23:25;;;;;;;7.80;5.12;;;;;;;7.36;100.00;99946.34;1779971;80;21669;-71
2021/09/23 01:25:52;;;;;;;7.35;4.75;;;;;;;7.37;100.00;99944.61;1768899;80;21055;-72
2021/09/23 01:28:20;;;;;;;6.00;4.08;;;;;;;7.37;100.00;99944.15;1753902;81;21076;-72
2021/09/23 01:30:52;;;;;;;4.90;3.80;;;;;;;7.38;100.00;99947.63;1754121;81;21055;-72
2021/09/23 01:33:18;;;;;;;5.25;3.80;;;;;;;7.37;100.00;99946.77;1740571;81;21087;-72
2021/09/23 01:35:46;;;;;;;7.50;4.22;;;;;;;7.38;100.00;99948.93;1723882;83;21036;-75
2021/09/23 01:38:13;;;;;;;7.67;4.45;;;;;;;7.35;100.00;99942.87;1723772;83;21087;-72
2021/09/23 01:40:39;;;;;;;6.50;4.60;;;;;;;7.33;100.00;99949.91;1743656;80;21016;-73
2021/09/23 01:43:08;;;;;;;9.85;4.90;;;;;;;7.30;100.00;99942.59;1753798;81;21107;-74
2021/09/23 01:45:35;;;;;;;8.78;4.83;;;;;;;7.24;100.00;99939.67;1753836;81;21101;-73
2021/09/23 01:48:01;;;;;;;10.32;4.75;;;;;;;7.20;100.00;99943.30;1754001;81;21522;-74
2021/09/23 01:50:30;;;;;;;6.08;4.00;;;;;;;7.17;100.00;99951.22;1753985;81;21087;-73
2021/09/23 01:52:58;;;;;;;6.58;4.45;;;;;;;7.11;100.00;99949.63;1754115;81;21582;-72
2021/09/23 01:55:26;;;;;;;4.20;3.37;;;;;;;7.09;100.00;99944.02;1754030;81;21060;-73
2021/09/23 01:57:54;;;;;;;7.70;4.00;;;;;;;7.07;100.00;99945.81;1754152;81;21139;-74
2021/09/23 02:00:22;;;;;;;5.12;4.05;;;;;;;7.06;100.00;99943.66;1753972;81;21079;-73
2021/09/23 02:02:50;;;;;;;6.92;4.62;;;;;;;7.05;100.00;99946.30;1754145;81;21067;-72
2021/09/23 02:05:19;;;;;;;7.97;5.08;;;;;;;7.02;100.00;99949.01;1753761;81;21032;-74
2021/09/23 02:07:46;;;;;;;6.95;4.50;;;;;;;7.01;100.00;99954.67;1754182;81;21055;-75
2021/09/23 02:10:13;;;;;;;8.50;5.00;;;;;;;6.99;100.00;99947.30;1753862;81;21496;-73
2021/09/23 02:12:40;;;;;;;7.15;4.47;;;;;;;6.97;100.00;99949.13;1753760;81;21585;-74
2021/09/23 02:15:11;;;;;;;7.95;5.10;;;;;;;6.98;100.00;99952.59;1734891;81;21601;-74
2021/09/23 02:17:40;;;;;;;6.70;4.67;;;;;;;6.98;100.00;99955.21;1748829;82;21038;-74
2021/09/23 02:20:12;;;;;;;6.47;4.83;;;;;;;6.98;100.00;99952.59;1749027;80;21560;-73
2021/09/23 02:22:43;;;;;;;8.30;5.15;;;;;;;6.99;100.00;99956.92;1748046;81;21557;-68
2021/09/23 02:25:11;;;;;;;11.90;5.72;;;;;;;6.96;100.00;99952.63;1748471;82;21046;-69
2021/09/23 02:27:39;;;;;;;11.15;5.10;;;;;;;6.96;100.00;99952.63;1748734;82;21057;-68
2021/09/23 02:30:08;;;;;;;5.80;4.33;;;;;;;6.94;100.00;99953.95;1748491;82;21652;-69
2021/09/23 02:32:34;;;;;;;6.83;4.83;;;;;;;6.91;100.00;99947.50;1748549;81;22341;-72
2021/09/23 02:35:05;;;;;;;9.90;5.20;;;;;;;6.92;100.00;99950.55;1748153;80;21096;-72
2021/09/23 02:37:33;;;;;;;9.20;5.22;;;;;;;6.92;100.00;99950.55;1749624;82;21047;-71
2021/09/23 02:40:00;;;;;;;9.68;4.80;;;;;;;6.92;100.00;99957.09;1751073;82;21549;-71
2021/09/23 02:42:28;;;;;;;5.95;4.40;;;;;;;6.92;100.00;99951.86;1752765;82;21308;-72
2021/09/23 02:44:56;;;;;;;10.05;5.90;;;;;;;6.93;100.00;99948.33;1751268;82;21066;-70
2021/09/23 02:47:26;;;;;;;8.30;4.90;;;;;;;6.94;100.00;99943.48;1748860;80;21159;-70
2021/09/23 02:49:52;;;;;;;6.25;5.25;;;;;;;6.93;100.00;99941.78;1749278;82;21098;-69
2021/09/23 02:52:19;;;;;;;6.45;5.10;;;;;;;6.93;100.00;99941.78;1748838;82;21070;-71
2021/09/23 02:54:46;;;;;;;7.05;5.45;;;;;;;6.92;100.00;99936.16;1748699;80;21628;-71
2021/09/23 02:57:12;;;;;;;8.08;5.80;;;;;;;6.93;100.00;99938.31;1748754;82;21078;-70
2021/09/23 02:59:39;;;;;;;10.90;5.85;;;;;;;6.94;100.00;99942.18;1749014;82;21128;-70
2021/09/23 03:02:06;;;;;;;8.13;5.53;;;;;;;6.94;100.00;99942.18;1748743;80;21634;-71
2021/09/23 03:04:33;;;;;;;8.10;5.60;;;;;;;6.96;100.00;99941.30;1749058;81;21116;-71
2021/09/23 03:07:01;;;;;;;8.40;5.40;;;;;;;6.90;100.00;99932.70;1748656;81;21547;-72
2021/09/23 03:09:29;;;;;;;9.88;5.78;;;;;;;6.96;100.00;99944.77;1748674;81;21044;-71
2021/09/23 03:11:57;;;;;;;10.98;5.60;;;;;;;6.94;100.00;99942.18;1748643;81;21041;-72
2021/09/23 03:14:23;;;;;;;8.53;4.72;;;;;;;6.94;100.00;99940.02;1749043;82;21626;-70
2021/09/23 03:16:51;;;;;;;11.45;4.95;;;;;;;6.92;100.00;99944.00;1743156;81;21212;-72
2021/09/23 03:19:18;;;;;;;9.20;5.70;;;;;;;6.93;100.00;99943.09;1739213;82;21029;-72
2021/09/23 03:21:47;;;;;;;8.40;5.28;;;;;;;6.94;100.00;99939.56;1739280;82;21025;-73
2021/09/23 03:24:13;;;;;;;9.53;5.80;;;;;;;6.93;100.00;99944.40;1739326;82;21645;-72
2021/09/23 03:26:41;;;;;;;6.35;4.35;;;;;;;6.93;100.00;99943.09;1769442;80;21037;-72
2021/09/23 03:29:09;;;;;;;8.48;5.60;;;;;;;6.93;100.00;99943.09;1723172;80;21534;-71
2021/09/23 03:31:36;;;;;;;11.45;5.92;;;;;;;6.94;100.00;99942.18;1777782;80;21072;-71
2021/09/23 03:34:05;;;;;;;11.53;6.05;;;;;;;6.94;100.00;99943.48;1777925;80;21159;-72
2021/09/23 03:36:31;;;;;;;10.25;6.53;;;;;;;6.92;100.00;99942.70;1777911;80;21143;-70
2021/09/23 03:38:58;;;;;;;9.48;6.20;;;;;;;6.90;100.00;99943.18;1777701;80;21025;-69
2021/09/23 03:41:25;;;;;;;10.93;6.28;;;;;;;6.93;100.00;99949.64;1777988;80;21037;-71
2021/09/23 03:43:53;;;;;;;8.85;5.70;;;;;;;6.97;100.00;99949.13;1777989;80;21532;-72
2021/09/23 03:46:21;;;;;;;7.67;5.50;;;;;;;6.99;100.00;99945.14;1777871;80;21087;-71
2021/09/23 03:48:49;;;;;;;8.45;5.75;;;;;;;6.98;100.00;99946.05;1777884;80;21014;-71
2021/09/23 03:51:17;;;;;;;11.18;6.50;;;;;;;6.99;100.00;99943.38;1777801;80;21535;-72
2021/09/23 03:53:46;;;;;;;9.88;6.35;;;;;;;6.98;100.00;99944.28;1778060;80;21029;-72
2021/09/23 03:56:12;;;;;;;9.00;6.53;;;;;;;6.97;100.00;99943.00;1777812;80;21018;-72
2021/09/23 03:58:43;;;;;;;10.83;4.87;;;;;;;6.98;100.00;99949.98;1778447;80;21017;-72
2021/09/23 04:01:12;;;;;;;9.93;6.22;;;;;;;6.98;100.00;99945.59;1777811;80;21076;-70
2021/09/23 04:03:39;;;;;;;7.25;5.20;;;;;;;6.98;100.00;99945.59;1778022;80;21072;-72
2021/09/23 04:06:05;;;;;;;6.12;4.67;;;;;;;6.98;100.00;99949.98;1777709;80;21451;-74
2021/09/23 04:08:33;;;;;;;7.80;5.37;;;;;;;6.97;100.00;99941.70;1772984;80;21084;-72
2021/09/23 04:11:00;;;;;;;10.13;5.50;;;;;;;6.98;100.00;99947.36;1737826;82;21049;-70
2021/09/23 04:13:28;;;;;;;9.30;6.15;;;;;;;6.98;100.00;99950.83;1755401;80;21466;-80
2021/09/23 04:15:57;;;;;;;9.93;6.97;;;;;;;6.97;100.00;99948.23;1728512;81;21030;-79
2021/09/23 04:18:24;;;;;;;9.93;6.60;;;;;;;6.97;100.00;99950.44;1742415;80;21041;-79
2021/09/23 04:20:50;;;;;;;13.32;6.83;;;;;;;6.97;100.00;99943.00;1710672;83;21101;-80
2021/09/23 04:23:17;;;;;;;10.70;6.53;;;;;;;6.97;100.00;99950.44;1741828;82;21548;-79
2021/09/23 04:25:45;;;;;;;10.88;7.45;;;;;;;6.98;100.00;99947.36;1698007;83;21180;-79
2021/09/23 04:28:11;;;;;;;12.18;6.70;;;;;;;6.98;100.00;99947.36;1686537;85;21574;-79
2021/09/23 04:30:38;;;;;;;11.20;6.67;;;;;;;7.00;100.00;99949.03;1702073;84;21057;-77
2021/09/23 04:33:05;;;;;;;12.43;7.30;;;;;;;7.01;100.00;99951.20;1697647;83;21039;-81
2021/09/23 04:35:33;;;;;;;10.35;6.87;;;;;;;7.01;100.00;99953.81;1697641;84;21053;-80
2021/09/23 04:38:00;;;;;;;11.50;7.45;;;;;;;7.01;100.00;99949.89;1704759;82;21142;-80
2021/09/23 04:40:37;;;;;;;13.08;7.37;;;;;;;7.01;100.00;99949.89;1726955;83;20990;-81
2021/09/23 04:43:06;;;;;;;9.68;6.37;;;;;;;7.03;100.00;99954.64;1726504;83;21060;-80
2021/09/23 04:45:34;;;;;;;10.68;6.53;;;;;;;7.00;100.00;99953.42;1726967;82;21154;-80
2021/09/23 04:48:02;;;;;;;8.80;6.12;;;;;;;7.00;100.00;99954.73;1717422;83;21076;-83
2021/09/23 04:50:29;;;;;;;7.28;5.33;;;;;;;7.00;100.00;99949.03;1720945;83;21830;-80
2021/09/23 04:52:56;;;;;;;16.97;7.10;;;;;;;7.03;100.00;99954.64;1687120;83;21063;-80
2021/09/23 04:55:23;;;;;;;14.18;5.83;;;;;;;7.05;100.00;99955.01;1765035;80;21492;-83
2021/09/23 04:57:52;;;;;;;9.95;5.17;;;;;;;7.06;100.00;99955.86;1766479;80;21053;-85
2021/09/23 05:00:21;;;;;;;11.12;7.03;;;;;;;7.08;100.00;99961.92;1743576;79;20963;-76
2021/09/23 05:02:51;;;;;;;9.23;6.28;;;;;;;7.09;100.00;99958.42;1747624;80;21121;-85
2021/09/23 05:05:17;;;;;;;9.63;7.17;;;;;;;7.10;100.00;99957.52;1742820;80;21003;-80
2021/09/23 05:07:46;;;;;;;9.90;7.05;;;;;;;7.09;100.00;99956.66;1776426;80;21612;-83
2021/09/23 05:10:14;;;;;;;10.75;7.25;;;;;;;7.08;100.00;99952.76;1774354;80;21559;-73
2021/09/23 05:12:42;;;;;;;11.73;7.58;;;;;;;7.09;100.00;99951.88;1778254;80;21116;-72
2021/09/23 05:15:12;;;;;;;11.68;6.58;;;;;;;7.06;100.00;99953.24;1777685;80;21146;-72
2021/09/23 05:17:40;;;;;;;14.07;7.92;;;;;;;7.05;100.00;99949.77;1771662;80;21493;-73
2021/09/23 05:20:08;;;;;;;15.50;7.25;;;;;;;7.06;100.00;99948.89;1760184;81;21099;-73
2021/09/23 05:22:38;;;;;;;10.53;7.05;;;;;;;7.09;100.00;99951.88;1753364;81;21153;-73
2021/09/23 05:25:05;;;;;;;10.82;6.95;;;;;;;7.08;100.00;99951.45;1756428;81;21032;-72
2021/09/23 05:27:32;;;;;;;10.13;6.60;;;;;;;7.08;100.00;99960.61;1769403;81;21100;-72
2021/09/23 05:30:00;;;;;;;14.33;6.00;;;;;;;7.08;100.00;99963.23;1763585;80;20978;-72
2021/09/23 05:32:28;;;;;;;31.15;7.35;;;;;;;7.06;100.00;99961.09;1769608;79;21585;-72
2021/09/23 05:34:55;;;;;;;12.70;6.17;;;;;;;7.05;100.00;99964.17;1768737;81;21017;-72
2021/09/23 05:37:22;;;;;;;10.23;6.58;;;;;;;7.07;100.00;99962.84;1765106;81;21089;-73
2021/09/23 05:39:50;;;;;;;13.18;7.08;;;;;;;7.08;100.00;99960.61;1768900;81;21089;-74
2021/09/23 05:42:17;;;;;;;8.73;6.80;;;;;;;7.10;100.00;99962.75;1767429;80;21509;-74
2021/09/23 05:44:44;;;;;;;12.00;7.47;;;;;;;7.11;100.00;99957.48;1769609;79;21059;-72
2021/09/23 05:47:11;;;;;;;12.58;7.12;;;;;;;7.14;100.00;99964.39;1771740;80;21115;-74
2021/09/23 05:49:41;;;;;;;10.70;7.30;;;;;;;7.16;100.00;99962.60;1768877;81;21037;-74
2021/09/23 05:52:08;;;;;;;12.45;7.12;;;;;;;7.20;100.00;99962.94;1766233;80;21132;-74
2021/09/23 05:54:34;;;;;;;13.43;7.70;;;;;;;7.23;100.00;99958.92;1745783;81;21079;-73
2021/09/23 05:57:04;;;;;;;14.25;7.70;;;;;;;7.24;100.00;99960.63;1739088;82;21061;-72
2021/09/23 05:59:31;;;;;;;9.15;6.53;;;;;;;7.29;100.00;99961.39;1739223;82;21112;-73
2021/09/23 06:01:57;;;;;;;12.03;8.05;;;;;;;7.32;100.00;99957.83;1739234;82;20997;-72
2021/09/23 06:04:24;;;;;;;12.50;8.05;;;;;;;7.33;100.00;99959.53;1738442;82;21632;-74
2021/09/23 06:06:51;;;;;;;12.75;8.03;;;;;;;7.35;100.00;99962.52;1737627;81;21021;-73
2021/09/23 06:09:17;;;;;;;11.28;6.45;;;;;;;7.37;100.00;99962.95;1738332;82;21029;-73
2021/09/23 06:11:45;;;;;;;10.43;7.22;;;;;;;7.38;100.00;99962.03;1737996;81;21036;-73
2021/09/23 06:14:14;;;;;;;11.63;7.42;;;;;;;7.38;100.00;99964.66;1738029;81;21061;-73
2021/09/23 06:16:42;;;;;;;9.63;7.22;;;;;;;7.37;100.00;99962.95;1738608;81;21060;-73
2021/09/23 06:19:09;;;;;;;10.85;7.17;;;;;;;7.38;100.00;99963.34;1770328;80;21016;-75
2021/09/23 06:21:37;;;;;;;11.22;7.60;;;;;;;7.33;100.00;99961.70;1778762;80;21575;-73
2021/09/23 06:24:04;;;;;;;10.98;7.70;;;;;;;7.30;100.00;99957.86;1779089;80;21080;-73
2021/09/23 06:26:30;;;;;;;9.95;6.90;;;;;;;7.26;100.00;99964.07;1779576;80;21072;-75
2021/09/23 06:31:48;;;;;;;9.88;7.05;;;;;;;7.36;100.00;99969.92;1780473;79;28128;-74
2021/09/23 06:34:14;;;;;;;11.28;7.85;;;;;;;7.35;100.00;99963.83;1725958;83;21006;-73
2021/09/23 06:36:41;;;;;;;15.23;6.28;;;;;;;7.41;100.00;99967.18;1728605;81;21068;-73
2021/09/23 06:39:10;;;;;;;8.50;6.70;;;;;;;7.48;100.00;99968.77;1748623;81;21064;-74
2021/09/23 06:41:38;;;;;;;18.80;7.28;;;;;;;7.55;100.00;99971.63;1731331;81;26326;-73
2021/09/23 06:44:06;;;;;;;18.37;7.00;;;;;;;7.58;100.00;99967.59;1759113;81;21052;-73
2021/09/23 06:46:35;;;;;;;12.58;5.42;;;;;;;7.63;100.00;99967.47;1762707;80;21107;-73
2021/09/23 06:49:03;;;;;;;10.68;6.70;;;;;;;7.69;100.00;99966.86;1758489;80;20944;-73
2021/09/23 06:51:30;;;;;;;7.95;5.60;;;;;;;7.77;100.00;99967.48;1766469;80;21025;-74
2021/09/23 06:53:57;;;;;;;6.60;5.03;;;;;;;7.90;100.00;99963.22;1765150;80;21103;-72
2021/09/23 06:56:26;;;;;;;8.50;4.72;;;;;;;8.02;100.00;99962.00;1763843;80;21559;-73
2021/09/23 06:58:54;;;;;;;8.83;4.62;;;;;;;8.14;100.00;99961.63;1772572;80;21119;-73
2021/09/23 07:01:29;;;;;;;10.30;5.03;;;;;;;8.25;100.00;99961.32;1782883;80;21525;-74
2021/09/23 07:04:04;;;;;;;7.80;4.95;;;;;;;8.31;100.00;99958.52;1714513;80;21621;-72
2021/09/23 07:06:44;;;;;;;8.23;5.15;;;;;;;8.32;100.00;99958.45;1724798;80;21216;-74
2021/09/23 07:09:12;;;;;;;6.40;4.47;;;;;;;8.32;100.00;99956.30;1762701;80;21024;-73
2021/09/23 07:11:39;;;;;;;8.35;5.15;;;;;;;8.36;100.00;99963.17;1753843;80;21071;-73
2021/09/23 07:14:06;;;;;;;7.72;4.97;;;;;;;8.43;100.00;99962.11;1760460;80;21948;-74
2021/09/23 07:16:34;;;;;;;6.00;4.75;;;;;;;8.50;100.00;99963.63;1766106;80;21044;-73
2021/09/23 07:19:01;;;;;;;8.05;4.87;;;;;;;8.54;100.00;99960.02;1756392;80;21082;-73
2021/09/23 07:21:28;;;;;;;12.18;5.50;;;;;;;8.58;100.00;99957.70;1762294;80;21052;-73
2021/09/23 07:23:56;;;;;;;7.10;4.40;;;;;;;8.59;100.00;99959.41;1756888;80;21092;-74
2021/09/23 07:26:23;;;;;;;13.68;4.12;;;;;;;8.61;100.00;99962.84;1773890;80;21113;-73
2021/09/23 07:28:49;;;;;;;5.53;4.08;;;;;;;8.63;100.00;99955.36;1763399;80;21056;-73
2021/09/23 07:31:17;;;;;;;5.15;3.40;;;;;;;8.61;100.00;99952.34;1758738;80;21024;-73
2021/09/23 07:33:44;;;;;;;4.75;3.75;;;;;;;8.60;100.00;99953.27;1758616;80;21056;-73
2021/09/23 07:36:12;;;;;;;5.17;3.42;;;;;;;8.59;100.00;99956.78;1761339;80;21048;-74
2021/09/23 07:38:40;;;;;;;4.30;3.00;;;;;;;8.62;100.00;99954.51;1768560;80;21081;-74
2021/09/23 07:41:06;;;;;;;4.62;3.17;;;;;;;8.63;100.00;99956.67;1760317;80;21141;-73
2021/09/23 07:43:34;;;;;;;7.55;2.83;;;;;;;8.64;100.00;99959.26;1757999;80;22185;-74
2021/09/23 07:46:01;;;;;;;5.75;3.08;;;;;;;8.65;100.00;99958.38;1753440;80;21074;-74
2021/09/23 07:48:28;;;;;;;3.72;3.15;;;;;;;8.67;100.00;99953.05;1757744;80;21464;-73
2021/09/23 07:50:57;;;;;;;3.80;3.25;;;;;;;8.66;100.00;99955.28;1756980;80;21082;-73
2021/09/23 07:53:25;;;;;;;4.58;2.95;;;;;;;8.69;100.00;99956.48;1758260;80;21068;-74
2021/09/23 07:55:54;;;;;;;3.50;2.80;;;;;;;8.65;100.00;99953.55;1771339;80;21040;-72
2021/09/23 07:58:22;;;;;;;3.77;3.08;;;;;;;8.58;100.00;99957.70;1757619;80;21512;-73
2021/09/23 08:00:50;;;;;;;3.95;3.05;;;;;;;8.52;100.00;99957.88;1757645;80;21016;-72
2021/09/23 08:03:17;;;;;;;7.97;4.45;;;;;;;8.48;100.00;99961.50;1759493;80;21781;-73
2021/09/23 08:05:44;;;;;;;6.92;3.50;;;;;;;8.47;100.00;99961.57;1753197;80;21092;-72
2021/09/23 08:08:12;;;;;;;7.40;2.92;;;;;;;8.44;100.00;99952.00;1771966;80;21041;-73
2021/09/23 08:10:40;;;;;;;3.65;2.58;;;;;;;8.39;100.00;99952.56;1756915;80;21555;-74
2021/09/23 08:13:08;;;;;;;9.95;3.15;;;;;;;8.42;100.00;99958.20;1761513;80;21052;-72
2021/09/23 08:15:36;;;;;;;8.13;3.20;;;;;;;8.43;100.00;99950.76;1753708;80;21559;-74
2021/09/23 08:18:23;;;;;;;3.52;2.80;;;;;;;8.46;100.00;99952.81;1761030;80;21068;-73
2021/09/23 08:20:52;;;;;;;5.10;3.00;;;;;;;8.47;100.00;99957.17;1765537;80;21056;-74
2021/09/23 08:23:18;;;;;;;4.37;2.22;;;;;;;8.52;100.00;99956.57;1769727;80;21037;-72
2021/09/23 08:25:46;;;;;;;4.53;2.77;;;;;;;8.52;100.00;99955.26;1766376;80;21123;-73
2021/09/23 08:28:12;;;;;;;4.05;2.40;;;;;;;8.53;100.00;99950.40;1769022;80;21100;-74
2021/09/23 08:30:42;;;;;;;5.40;2.58;;;;;;;8.55;100.00;99951.22;1766194;80;21056;-72
2021/09/23 08:33:08;;;;;;;4.75;2.50;;;;;;;8.60;100.00;99949.75;1765727;80;21143;-75
2021/09/23 08:35:37;;;;;;;6.62;2.60;;;;;;;8.63;100.00;99946.17;1770055;80;21587;-73
2021/09/23 08:38:03;;;;;;;7.40;2.55;;;;;;;8.69;100.00;99951.23;1753567;81;21052;-73
2021/09/23 08:40:32;;;;;;;5.17;2.15;;;;;;;8.73;100.00;99944.98;1761876;80;21037;-73
2021/09/23 08:42:59;;;;;;;3.52;2.45;;;;;;;8.79;100.00;99943.48;1772361;80;21076;-72
2021/09/23 08:45:25;;;;;;;8.15;3.60;;;;;;;8.84;100.00;99948.13;1772287;80;21334;-74
2021/09/23 08:47:53;;;;;;;10.45;2.17;;;;;;;8.92;100.00;99946.09;1757576;80;21660;-74
2021/09/23 08:50:20;;;;;;;3.17;1.90;;;;;;;8.96;100.00;99941.14;1758747;80;21129;-73
2021/09/23 08:52:48;;;;;;;2.27;1.85;;;;;;;9.01;100.00;99941.84;1773265;79;21021;-74
2021/09/23 08:55:28;;;;;;;2.33;1.80;;;;;;;9.14;100.00;99945.38;1763084;80;21563;-73
2021/09/23 08:58:03;;;;;;;4.92;1.70;;;;;;;9.28;100.00;99937.88;1752086;80;21002;-74
2021/09/23 09:00:35;;;;;;;2.62;1.90;;;;;;;9.50;99.76;99935.80;1753330;81;21127;-74
2021/09/23 09:03:09;;;;;;;2.65;1.75;;;;;;;9.75;99.92;99934.00;1765007;80;21025;-73
2021/09/23 09:05:41;;;;;;;2.85;1.87;;;;;;;9.96;98.33;99935.43;1751875;80;21544;-73
2021/09/23 09:08:10;;;;;;;1.77;1.40;;;;;;;10.18;97.65;99932.86;1673819;81;21205;-73
2021/09/23 09:10:59;;;;;;;2.95;1.70;;;;;;;10.31;96.35;99935.88;1755052;80;21005;-73
2021/09/23 09:13:33;;;;;;;3.67;1.60;;;;;;;10.35;94.75;99936.17;1743586;80;21662;-73
2021/09/23 09:16:14;;;;;;;3.65;1.65;;;;;;;10.34;94.65;99939.73;1759648;80;21544;-73
2021/09/23 09:18:43;;;;;;;1.60;1.40;;;;;;;10.32;94.32;99934.98;1752982;81;21044;-73
2021/09/23 09:21:12;;;;;;;2.62;1.60;;;;;;;10.27;94.09;99937.30;1753005;81;21092;-73
2021/09/23 09:23:55;;;;;;;2.50;1.70;;;;;;;10.25;93.90;99940.44;1764930;80;21013;-74
2021/09/23 09:26:37;;;;;;;2.27;1.15;;;;;;;10.22;94.56;99937.09;1765864;80;21059;-72
2021/09/23 09:29:05;;;;;;;1.40;1.30;;;;;;;10.26;94.73;99934.28;1766238;80;21665;-72
2021/09/23 09:31:33;;;;;;;1.90;1.40;;;;;;;10.28;91.99;99928.94;1765116;80;21212;-72
2021/09/23 09:34:02;;;;;;;1.85;1.37;;;;;;;10.22;90.94;99931.36;1756189;81;21553;-74
2021/09/23 09:36:41;;;;;;;1.50;1.30;;;;;;;10.15;91.94;99927.25;1754949;81;21110;-73
2021/09/23 09:39:15;;;;;;;6.75;1.50;;;;;;;10.08;90.76;99931.04;1755896;81;21091;-73
2021/09/23 09:41:44;;;;;;;3.77;1.50;;;;;;;9.99;91.57;99929.61;1756274;81;21076;-72
2021/09/23 09:44:13;;;;;;;3.45;1.30;;;;;;;9.93;92.89;99928.52;1785698;80;21045;-72
2021/09/23 09:46:51;;;;;;;2.42;1.60;;;;;;;9.88;93.29;99932.63;1772813;80;21045;-73
2021/09/23 09:49:21;;;;;;;2.72;1.67;;;;;;;9.80;93.33;99932.51;1787305;80;21476;-74
2021/09/23 09:51:58;;;;;;;2.20;1.80;;;;;;;9.75;94.18;99932.67;1787485;80;21089;-74
2021/09/23 09:54:26;;;;;;;2.67;1.82;;;;;;;9.73;93.93;99926.64;1780918;80;21119;-75
2021/09/23 09:56:59;;;;;;;3.37;1.85;;;;;;;9.72;94.10;99927.55;1770068;80;21142;-71
2021/09/23 09:59:27;;;;;;;4.33;2.30;;;;;;;9.78;94.32;99935.22;1774158;80;20994;-74
2021/09/23 10:01:57;;;;;;;3.10;2.15;;;;;;;9.85;94.81;99928.81;1753079;80;21037;-72
2021/09/23 10:04:27;;;;;;;3.87;2.50;;;;;;;9.96;94.92;99930.17;1757157;80;20980;-73
2021/09/23 10:06:56;;;;;;;2.95;1.85;;;;;;;10.11;95.58;99932.23;1761791;80;21055;-73
2021/09/23 10:09:23;;;;;;;2.42;1.57;;;;;;;10.25;94.19;99927.28;1762329;80;21553;-73
2021/09/23 10:11:53;;;;;;;3.17;1.75;;;;;;;10.36;93.27;99932.17;1768863;80;21689;-73
2021/09/23 10:14:23;;;;;;;2.15;1.50;;;;;;;10.41;93.56;99931.99;1756130;81;20970;-72
2021/09/23 10:16:49;;;;;;;4.00;1.60;;;;;;;10.50;92.34;99930.31;1762425;80;21125;-72
2021/09/23 10:19:16;;;;;;;1.72;1.30;;;;;;;10.54;90.52;99933.22;1757624;80;21059;-71
2021/09/23 10:21:43;;;;;;;1.40;1.30;;;;;;;10.58;89.81;99932.19;1769804;80;22147;-72
2021/09/23 10:24:11;;;;;;;1.95;1.60;;;;;;;10.63;88.63;99922.32;1772832;80;21012;-72
2021/09/23 10:26:40;;;;;;;2.08;1.50;;;;;;;10.60;85.23;99919.79;1779807;80;21111;-72
2021/09/23 10:29:10;;;;;;;2.17;1.67;;;;;;;10.56;87.16;99927.44;1766825;79;21112;-72
2021/09/23 10:31:37;;;;;;;2.95;1.50;;;;;;;10.59;88.49;99932.57;1784455;80;21088;-73
2021/09/23 10:34:06;;;;;;;3.10;1.57;;;;;;;10.66;89.11;99926.60;1763900;80;21114;-72
2021/09/23 10:36:39;;;;;;;1.55;1.20;;;;;;;10.77;88.09;99926.17;1667047;85;21061;-73
2021/09/23 10:39:08;;;;;;;2.60;1.30;;;;;;;10.89;86.23;99928.30;1685513;85;21061;-73
2021/09/23 10:41:39;;;;;;;3.92;1.15;;;;;;;10.97;86.80;99925.33;1748872;80;21670;-74
2021/09/23 10:44:06;;;;;;;1.35;1.20;;;;;;;11.00;84.74;99931.34;1751838;80;21065;-74
2021/09/23 10:46:35;;;;;;;4.97;1.22;;;;;;;11.02;85.28;99934.77;1763161;80;21088;-74
2021/09/23 10:49:06;;;;;;;1.77;1.10;;;;;;;11.04;84.59;99930.30;1774873;80;21064;-73
2021/09/23 10:51:35;;;;;;;2.52;1.40;;;;;;;11.11;83.84;99923.84;1778538;80;21005;-73
2021/09/23 10:54:08;;;;;;;2.30;1.67;;;;;;;11.12;82.23;99928.17;1766573;80;21057;-71
2021/09/23 10:56:34;;;;;;;1.62;1.20;;;;;;;10.92;81.83;99929.00;1713155;82;21043;-72
2021/09/23 10:59:03;;;;;;;3.47;1.25;;;;;;;10.74;83.85;99935.50;1726740;83;21904;-73
2021/09/23 11:01:33;;;;;;;1.85;1.10;;;;;;;10.53;84.32;99938.08;1726542;83;21047;-71
2021/09/23 11:04:01;;;;;;;3.80;1.10;;;;;;;10.30;85.85;99935.03;1727111;83;21044;-72
2021/09/23 11:06:37;;;;;;;0.95;0.80;;;;;;;10.08;87.21;99935.84;1727091;83;21074;-72
2021/09/23 11:09:21;;;;;;;1.10;0.90;;;;;;;9.84;88.01;99932.34;1743693;80;21087;-73
2021/09/23 11:11:55;;;;;;;2.02;1.10;;;;;;;9.66;89.18;99938.27;1775673;80;21180;-74
2021/09/23 11:14:27;;;;;;;1.02;0.93;;;;;;;9.56;90.64;99934.28;1768936;80;21029;-73
2021/09/23 11:16:57;;;;;;;2.15;0.93;;;;;;;9.50;91.77;99937.11;1666036;83;21577;-73
2021/09/23 11:19:26;;;;;;;0.82;0.53;;;;;;;9.48;92.00;99934.56;1715562;83;21066;-74
2021/09/23 11:21:56;;;;;;;1.55;1.00;;;;;;;9.47;92.51;99945.12;1778533;80;21076;-74
2021/09/23 11:24:26;;;;;;;1.17;0.85;;;;;;;9.45;91.67;99940.79;1767491;80;21017;-72
2021/09/23 11:26:53;;;;;;;3.22;1.00;;;;;;;9.42;92.73;99938.25;1766182;80;21128;-72
2021/09/23 11:29:22;;;;;;;3.37;1.10;;;;;;;9.39;92.95;99934.89;1778201;80;21048;-72
2021/09/23 11:31:54;;;;;;;1.57;0.90;;;;;;;9.42;93.56;99936.94;1777755;80;21060;-73
2021/09/23 11:34:35;;;;;;;1.72;1.10;;;;;;;9.47;94.66;99934.60;1787042;80;21029;-73
2021/09/23 11:37:08;;;;;;;3.98;1.25;;;;;;;9.54;95.54;99928.21;1760527;80;21159;-72
2021/09/23 11:39:48;;;;;;;1.87;1.22;;;;;;;9.58;94.54;99929.82;1755006;80;21053;-72
2021/09/23 11:42:20;;;;;;;2.95;1.20;;;;;;;9.55;94.91;99929.95;1756315;81;21025;-72